sensor_id;sensor_type;location;lat;lon;timestamp;temperature;humidity
18454;DHT22;9356;52.202;20.950;2023-02-28T01:36:38;0.00;89.50
18454;DHT22;9356;52.202;20.950;2023-02-28T01:41:10;0.00;90.60
18454;DHT22;9356;52.202;20.950;2023-02-28T01:46:20;-0.10;90.80
18454;DHT22;9356;52.202;20.950;2023-02-28T02:02:52;-0.10;89.80
18454;DHT22;9356;52.202;20.950;2023-02-28T03:29:49;-0.20;90.90
18454;DHT22;9356;52.202;20.950;2023-02-28T03:32:45;-0.20;90.90
18454;DHT22;9356;52.202;20.950;2023-02-28T03:33:58;-0.20;91.30
18454;DHT22;9356;52.202;20.950;2023-02-28T03:35:09;-0.20;91.10
18454;DHT22;9356;52.202;20.950;2023-02-28T03:36:19;-0.20;91.10
18454;DHT22;9356;52.202;20.950;2023-02-28T03:37:25;-0.20;91.20
18454;DHT22;9356;52.202;20.950;2023-02-28T03:38:35;-0.20;91.30
18454;DHT22;9356;52.202;20.950;2023-02-28T03:39:45;-0.20;91.40
18454;DHT22;9356;52.202;20.950;2023-02-28T03:41:01;-0.20;91.40
18454;DHT22;9356;52.202;20.950;2023-02-28T03:42:09;-0.20;91.40
18454;DHT22;9356;52.202;20.950;2023-02-28T03:43:19;-0.20;91.30
18454;DHT22;9356;52.202;20.950;2023-02-28T03:44:30;-0.20;91.40
18454;DHT22;9356;52.202;20.950;2023-02-28T03:45:39;-0.20;91.50
18454;DHT22;9356;52.202;20.950;2023-02-28T03:46:52;-0.20;91.50
18454;DHT22;9356;52.202;20.950;2023-02-28T03:48:01;-0.20;91.50
18454;DHT22;9356;52.202;20.950;2023-02-28T03:49:13;-0.20;91.60
18454;DHT22;9356;52.202;20.950;2023-02-28T03:50:21;-0.20;91.70
18454;DHT22;9356;52.202;20.950;2023-02-28T03:51:28;-0.20;91.70
18454;DHT22;9356;52.202;20.950;2023-02-28T03:52:36;-0.20;91.80
18454;DHT22;9356;52.202;20.950;2023-02-28T03:53:47;-0.20;91.80
18454;DHT22;9356;52.202;20.950;2023-02-28T03:54:59;-0.20;92.10
18454;DHT22;9356;52.202;20.950;2023-02-28T03:56:16;-0.20;91.80
18454;DHT22;9356;52.202;20.950;2023-02-28T03:57:31;-0.20;91.80
18454;DHT22;9356;52.202;20.950;2023-02-28T03:58:42;-0.20;91.80
18454;DHT22;9356;52.202;20.950;2023-02-28T03:59:53;-0.20;91.80
18454;DHT22;9356;52.202;20.950;2023-02-28T04:01:07;-0.20;91.80
18454;DHT22;9356;52.202;20.950;2023-02-28T04:02:11;-0.50;91.70
18454;DHT22;9356;52.202;20.950;2023-02-28T04:03:14;-0.20;91.70
18454;DHT22;9356;52.202;20.950;2023-02-28T04:04:18;-0.20;91.70
18454;DHT22;9356;52.202;20.950;2023-02-28T04:05:21;-0.20;91.70
18454;DHT22;9356;52.202;20.950;2023-02-28T04:06:26;-0.20;91.70
18454;DHT22;9356;52.202;20.950;2023-02-28T04:07:32;-0.30;91.80
18454;DHT22;9356;52.202;20.950;2023-02-28T04:08:39;0.30;92.00
18454;DHT22;9356;52.202;20.950;2023-02-28T04:09:43;-0.30;91.90
18454;DHT22;9356;52.202;20.950;2023-02-28T04:10:54;-0.30;92.00
18454;DHT22;9356;52.202;20.950;2023-02-28T04:11:59;-0.30;92.10
18454;DHT22;9356;52.202;20.950;2023-02-28T04:13:03;-0.30;92.10
18454;DHT22;9356;52.202;20.950;2023-02-28T04:14:08;-0.30;92.30
18454;DHT22;9356;52.202;20.950;2023-02-28T04:15:14;-0.30;92.40
18454;DHT22;9356;52.202;20.950;2023-02-28T04:16:18;-0.30;92.50
18454;DHT22;9356;52.202;20.950;2023-02-28T04:17:35;-0.30;92.50
18454;DHT22;9356;52.202;20.950;2023-02-28T04:18:39;-0.30;92.70
18454;DHT22;9356;52.202;20.950;2023-02-28T04:19:43;-0.30;92.70
18454;DHT22;9356;52.202;20.950;2023-02-28T04:20:46;-0.60;92.60
18454;DHT22;9356;52.202;20.950;2023-02-28T04:21:54;-0.30;92.60
18454;DHT22;9356;52.202;20.950;2023-02-28T04:22:56;-0.30;92.60
18454;DHT22;9356;52.202;20.950;2023-02-28T04:24:01;-0.30;92.70
18454;DHT22;9356;52.202;20.950;2023-02-28T04:25:06;-0.40;92.60
18454;DHT22;9356;52.202;20.950;2023-02-28T04:26:12;-0.30;92.70
18454;DHT22;9356;52.202;20.950;2023-02-28T04:27:15;-0.30;92.70
18454;DHT22;9356;52.202;20.950;2023-02-28T04:28:19;-0.30;92.80
18454;DHT22;9356;52.202;20.950;2023-02-28T04:29:24;-0.30;92.70
18454;DHT22;9356;52.202;20.950;2023-02-28T04:30:28;-0.40;92.70
18454;DHT22;9356;52.202;20.950;2023-02-28T04:31:33;-0.40;92.70
18454;DHT22;9356;52.202;20.950;2023-02-28T04:32:37;-0.40;92.80
18454;DHT22;9356;52.202;20.950;2023-02-28T04:33:40;-0.50;92.90
18454;DHT22;9356;52.202;20.950;2023-02-28T04:34:44;-0.40;92.90
18454;DHT22;9356;52.202;20.950;2023-02-28T04:35:49;-0.40;93.10
18454;DHT22;9356;52.202;20.950;2023-02-28T04:37:03;-0.40;93.10
18454;DHT22;9356;52.202;20.950;2023-02-28T04:38:15;-0.40;93.20
18454;DHT22;9356;52.202;20.950;2023-02-28T04:39:18;-0.40;93.40
18454;DHT22;9356;52.202;20.950;2023-02-28T04:40:22;-0.40;93.50
18454;DHT22;9356;52.202;20.950;2023-02-28T04:41:25;-0.40;93.50
18454;DHT22;9356;52.202;20.950;2023-02-28T04:42:32;-0.50;93.40
18454;DHT22;9356;52.202;20.950;2023-02-28T04:43:37;-0.40;93.40
18454;DHT22;9356;52.202;20.950;2023-02-28T04:44:44;-0.50;93.40
18454;DHT22;9356;52.202;20.950;2023-02-28T04:45:50;-1.00;93.30
18454;DHT22;9356;52.202;20.950;2023-02-28T04:46:54;-0.50;93.40
18454;DHT22;9356;52.202;20.950;2023-02-28T04:47:58;-0.50;93.40
18454;DHT22;9356;52.202;20.950;2023-02-28T04:49:01;-0.40;93.50
18454;DHT22;9356;52.202;20.950;2023-02-28T04:50:05;-0.50;93.30
18454;DHT22;9356;52.202;20.950;2023-02-28T04:51:11;-0.50;93.30
18454;DHT22;9356;52.202;20.950;2023-02-28T04:52:15;-0.50;93.30
18454;DHT22;9356;52.202;20.950;2023-02-28T04:53:18;-0.40;93.40
18454;DHT22;9356;52.202;20.950;2023-02-28T04:54:25;-0.50;93.40
18454;DHT22;9356;52.202;20.950;2023-02-28T04:55:29;-0.40;93.50
18454;DHT22;9356;52.202;20.950;2023-02-28T04:56:33;-0.40;93.50
18454;DHT22;9356;52.202;20.950;2023-02-28T04:57:36;-0.40;93.50
18454;DHT22;9356;52.202;20.950;2023-02-28T04:58:41;-0.40;93.60
18454;DHT22;9356;52.202;20.950;2023-02-28T04:59:44;-0.40;93.50
18454;DHT22;9356;52.202;20.950;2023-02-28T05:00:48;-0.40;93.60
18454;DHT22;9356;52.202;20.950;2023-02-28T05:01:53;-0.40;93.50
18454;DHT22;9356;52.202;20.950;2023-02-28T05:02:58;-0.40;93.60
18454;DHT22;9356;52.202;20.950;2023-02-28T05:04:03;-0.40;93.50
18454;DHT22;9356;52.202;20.950;2023-02-28T05:05:08;-0.40;93.60
18454;DHT22;9356;52.202;20.950;2023-02-28T05:06:12;-0.40;93.80
18454;DHT22;9356;52.202;20.950;2023-02-28T05:07:16;-0.40;93.90
18454;DHT22;9356;52.202;20.950;2023-02-28T05:08:19;-0.40;94.00
18454;DHT22;9356;52.202;20.950;2023-02-28T05:09:23;-0.50;94.10
18454;DHT22;9356;52.202;20.950;2023-02-28T05:10:26;-0.50;94.20
18454;DHT22;9356;52.202;20.950;2023-02-28T05:11:32;-0.50;94.30
18454;DHT22;9356;52.202;20.950;2023-02-28T05:12:37;-0.50;94.50
18454;DHT22;9356;52.202;20.950;2023-02-28T05:13:43;-0.50;94.60
18454;DHT22;9356;52.202;20.950;2023-02-28T05:14:47;-0.50;94.60
18454;DHT22;9356;52.202;20.950;2023-02-28T05:15:51;-0.50;94.60
18454;DHT22;9356;52.202;20.950;2023-02-28T05:16:55;-0.50;94.60
18454;DHT22;9356;52.202;20.950;2023-02-28T05:17:59;-0.50;94.80
18454;DHT22;9356;52.202;20.950;2023-02-28T05:19:02;-0.50;94.80
18454;DHT22;9356;52.202;20.950;2023-02-28T05:20:08;-0.50;94.80
18454;DHT22;9356;52.202;20.950;2023-02-28T05:21:30;-0.50;94.90
18454;DHT22;9356;52.202;20.950;2023-02-28T05:22:36;-0.50;94.90
18454;DHT22;9356;52.202;20.950;2023-02-28T05:23:39;-0.50;94.80
18454;DHT22;9356;52.202;20.950;2023-02-28T05:24:43;-0.50;94.90
18454;DHT22;9356;52.202;20.950;2023-02-28T05:25:47;-0.50;94.80
18454;DHT22;9356;52.202;20.950;2023-02-28T05:26:51;-0.40;94.90
18454;DHT22;9356;52.202;20.950;2023-02-28T05:27:55;-0.50;94.80
18454;DHT22;9356;52.202;20.950;2023-02-28T05:28:58;-0.50;94.90
18454;DHT22;9356;52.202;20.950;2023-02-28T05:30:01;-0.50;94.90
18454;DHT22;9356;52.202;20.950;2023-02-28T05:31:08;-0.40;94.90
18454;DHT22;9356;52.202;20.950;2023-02-28T05:32:14;-0.50;94.70
18454;DHT22;9356;52.202;20.950;2023-02-28T05:33:18;-0.40;94.80
18454;DHT22;9356;52.202;20.950;2023-02-28T05:34:21;-0.40;94.80
18454;DHT22;9356;52.202;20.950;2023-02-28T05:35:26;-0.40;94.90
18454;DHT22;9356;52.202;20.950;2023-02-28T05:36:29;-0.40;94.90
18454;DHT22;9356;52.202;20.950;2023-02-28T05:37:33;-0.40;94.90
18454;DHT22;9356;52.202;20.950;2023-02-28T05:38:35;-0.40;94.90
18454;DHT22;9356;52.202;20.950;2023-02-28T05:39:43;-0.30;94.80
18454;DHT22;9356;52.202;20.950;2023-02-28T05:40:45;-0.30;94.70
18454;DHT22;9356;52.202;20.950;2023-02-28T05:41:49;-0.30;94.50
18454;DHT22;9356;52.202;20.950;2023-02-28T05:42:51;-0.20;94.20
18454;DHT22;9356;52.202;20.950;2023-02-28T05:43:55;0.00;94.00
18454;DHT22;9356;52.202;20.950;2023-02-28T05:44:59;0.30;93.80
18454;DHT22;9356;52.202;20.950;2023-02-28T05:46:05;0.50;93.40
18454;DHT22;9356;52.202;20.950;2023-02-28T05:47:08;0.70;92.60
18454;DHT22;9356;52.202;20.950;2023-02-28T05:48:14;0.90;92.20
18454;DHT22;9356;52.202;20.950;2023-02-28T05:49:16;1.20;91.70
18454;DHT22;9356;52.202;20.950;2023-02-28T05:50:20;1.40;91.10
18454;DHT22;9356;52.202;20.950;2023-02-28T05:51:26;1.60;90.20
18454;DHT22;9356;52.202;20.950;2023-02-28T05:52:30;1.80;89.30
18454;DHT22;9356;52.202;20.950;2023-02-28T05:53:36;2.00;87.80
18454;DHT22;9356;52.202;20.950;2023-02-28T05:54:40;2.20;86.70
18454;DHT22;9356;52.202;20.950;2023-02-28T05:55:42;2.30;85.60
18454;DHT22;9356;52.202;20.950;2023-02-28T05:56:46;2.50;89.90
18454;DHT22;9356;52.202;20.950;2023-02-28T05:57:49;2.70;87.60
18454;DHT22;9356;52.202;20.950;2023-02-28T05:58:53;2.80;84.50
18454;DHT22;9356;52.202;20.950;2023-02-28T05:59:57;2.90;82.20
18454;DHT22;9356;52.202;20.950;2023-02-28T06:01:20;3.00;81.70
18454;DHT22;9356;52.202;20.950;2023-02-28T06:02:23;3.30;79.80
18454;DHT22;9356;52.202;20.950;2023-02-28T06:03:30;3.30;78.20
18454;DHT22;9356;52.202;20.950;2023-02-28T06:04:33;3.40;77.20
18454;DHT22;9356;52.202;20.950;2023-02-28T06:05:37;3.40;76.00
18454;DHT22;9356;52.202;20.950;2023-02-28T06:06:41;3.50;76.50
18454;DHT22;9356;52.202;20.950;2023-02-28T06:07:45;3.60;74.60
18454;DHT22;9356;52.202;20.950;2023-02-28T06:08:47;3.60;73.90
18454;DHT22;9356;52.202;20.950;2023-02-28T06:09:51;3.70;74.10
18454;DHT22;9356;52.202;20.950;2023-02-28T06:10:54;3.70;73.50
18454;DHT22;9356;52.202;20.950;2023-02-28T06:11:58;3.90;73.00
18454;DHT22;9356;52.202;20.950;2023-02-28T06:13:01;3.90;73.30
18454;DHT22;9356;52.202;20.950;2023-02-28T06:14:05;4.00;73.00
18454;DHT22;9356;52.202;20.950;2023-02-28T06:15:12;4.10;72.80
18454;DHT22;9356;52.202;20.950;2023-02-28T06:16:15;4.20;72.00
18454;DHT22;9356;52.202;20.950;2023-02-28T06:17:19;4.30;71.60
18454;DHT22;9356;52.202;20.950;2023-02-28T06:18:26;4.20;71.60
18454;DHT22;9356;52.202;20.950;2023-02-28T06:19:30;4.40;71.20
18454;DHT22;9356;52.202;20.950;2023-02-28T06:20:37;4.50;70.30
18454;DHT22;9356;52.202;20.950;2023-02-28T06:21:43;4.60;70.20
18454;DHT22;9356;52.202;20.950;2023-02-28T06:22:48;4.70;69.60
18454;DHT22;9356;52.202;20.950;2023-02-28T06:23:53;4.70;69.10
18454;DHT22;9356;52.202;20.950;2023-02-28T06:24:57;4.80;68.10
18454;DHT22;9356;52.202;20.950;2023-02-28T06:26:01;4.90;67.50
18454;DHT22;9356;52.202;20.950;2023-02-28T06:27:04;5.00;66.90
18454;DHT22;9356;52.202;20.950;2023-02-28T06:28:08;5.00;65.60
18454;DHT22;9356;52.202;20.950;2023-02-28T06:29:11;5.10;65.10
18454;DHT22;9356;52.202;20.950;2023-02-28T06:30:24;5.00;64.90
18454;DHT22;9356;52.202;20.950;2023-02-28T06:31:30;5.10;63.90
18454;DHT22;9356;52.202;20.950;2023-02-28T06:32:34;5.20;63.70
18454;DHT22;9356;52.202;20.950;2023-02-28T06:33:39;5.20;63.40
18454;DHT22;9356;52.202;20.950;2023-02-28T06:34:43;5.30;62.90
18454;DHT22;9356;52.202;20.950;2023-02-28T06:35:50;5.30;62.70
18454;DHT22;9356;52.202;20.950;2023-02-28T06:36:53;5.50;62.00
18454;DHT22;9356;52.202;20.950;2023-02-28T06:37:57;5.40;61.70
18454;DHT22;9356;52.202;20.950;2023-02-28T06:39:00;5.30;60.70
18454;DHT22;9356;52.202;20.950;2023-02-28T06:40:05;5.30;61.00
18454;DHT22;9356;52.202;20.950;2023-02-28T06:41:10;5.40;61.80
18454;DHT22;9356;52.202;20.950;2023-02-28T06:42:19;5.40;61.30
18454;DHT22;9356;52.202;20.950;2023-02-28T06:43:28;5.30;60.10
18454;DHT22;9356;52.202;20.950;2023-02-28T06:44:32;5.30;59.60
18454;DHT22;9356;52.202;20.950;2023-02-28T06:45:41;5.30;59.90
18454;DHT22;9356;52.202;20.950;2023-02-28T06:46:46;5.30;60.20
18454;DHT22;9356;52.202;20.950;2023-02-28T06:47:50;5.30;60.10
18454;DHT22;9356;52.202;20.950;2023-02-28T06:48:54;5.30;59.60
18454;DHT22;9356;52.202;20.950;2023-02-28T06:50:03;5.70;59.70
18454;DHT22;9356;52.202;20.950;2023-02-28T06:51:14;5.30;58.40
18454;DHT22;9356;52.202;20.950;2023-02-28T06:52:17;5.30;59.10
18454;DHT22;9356;52.202;20.950;2023-02-28T06:53:22;5.30;59.60
18454;DHT22;9356;52.202;20.950;2023-02-28T06:54:25;5.30;59.20
18454;DHT22;9356;52.202;20.950;2023-02-28T06:55:30;5.50;59.10
18454;DHT22;9356;52.202;20.950;2023-02-28T06:56:33;5.70;87.20
18454;DHT22;9356;52.202;20.950;2023-02-28T06:57:39;6.10;82.90
18454;DHT22;9356;52.202;20.950;2023-02-28T06:58:45;6.30;65.00
18454;DHT22;9356;52.202;20.950;2023-02-28T06:59:49;6.40;59.60
18454;DHT22;9356;52.202;20.950;2023-02-28T07:00:54;6.40;58.30
18454;DHT22;9356;52.202;20.950;2023-02-28T07:01:58;6.50;57.70
18454;DHT22;9356;52.202;20.950;2023-02-28T07:03:02;6.40;57.60
18454;DHT22;9356;52.202;20.950;2023-02-28T07:04:06;6.40;57.10
18454;DHT22;9356;52.202;20.950;2023-02-28T07:05:11;6.40;56.70
18454;DHT22;9356;52.202;20.950;2023-02-28T07:06:14;6.50;56.10
18454;DHT22;9356;52.202;20.950;2023-02-28T07:07:20;6.50;56.00
18454;DHT22;9356;52.202;20.950;2023-02-28T07:08:24;6.60;55.70
18454;DHT22;9356;52.202;20.950;2023-02-28T07:09:29;6.60;55.60
18454;DHT22;9356;52.202;20.950;2023-02-28T07:10:32;6.50;56.10
18454;DHT22;9356;52.202;20.950;2023-02-28T07:11:39;6.50;55.80
18454;DHT22;9356;52.202;20.950;2023-02-28T07:12:45;6.50;56.20
18454;DHT22;9356;52.202;20.950;2023-02-28T07:13:48;6.60;55.60
18454;DHT22;9356;52.202;20.950;2023-02-28T07:14:53;6.60;54.70
18454;DHT22;9356;52.202;20.950;2023-02-28T07:16:00;6.50;55.20
18454;DHT22;9356;52.202;20.950;2023-02-28T07:17:03;6.60;54.60
18454;DHT22;9356;52.202;20.950;2023-02-28T07:18:08;6.70;54.70
18454;DHT22;9356;52.202;20.950;2023-02-28T07:19:12;6.80;54.50
18454;DHT22;9356;52.202;20.950;2023-02-28T07:20:18;6.80;54.30
18454;DHT22;9356;52.202;20.950;2023-02-28T07:21:25;6.90;53.90
18454;DHT22;9356;52.202;20.950;2023-02-28T07:22:32;7.00;54.40
18454;DHT22;9356;52.202;20.950;2023-02-28T07:23:37;7.20;54.50
18454;DHT22;9356;52.202;20.950;2023-02-28T07:24:40;7.40;53.70
18454;DHT22;9356;52.202;20.950;2023-02-28T07:25:49;7.70;53.50
18454;DHT22;9356;52.202;20.950;2023-02-28T07:26:53;7.90;52.80
18454;DHT22;9356;52.202;20.950;2023-02-28T07:27:57;8.00;51.90
18454;DHT22;9356;52.202;20.950;2023-02-28T07:29:04;8.20;52.20
18454;DHT22;9356;52.202;20.950;2023-02-28T07:30:09;8.40;51.90
18454;DHT22;9356;52.202;20.950;2023-02-28T07:31:13;8.50;51.40
18454;DHT22;9356;52.202;20.950;2023-02-28T07:32:17;8.30;51.30
18454;DHT22;9356;52.202;20.950;2023-02-28T07:33:21;8.30;50.80
18454;DHT22;9356;52.202;20.950;2023-02-28T07:34:26;8.40;50.20
18454;DHT22;9356;52.202;20.950;2023-02-28T07:35:31;8.40;49.70
18454;DHT22;9356;52.202;20.950;2023-02-28T07:36:34;8.40;50.00
18454;DHT22;9356;52.202;20.950;2023-02-28T07:37:38;8.50;49.90
18454;DHT22;9356;52.202;20.950;2023-02-28T07:38:44;8.60;49.90
18454;DHT22;9356;52.202;20.950;2023-02-28T07:39:49;8.60;49.50
18454;DHT22;9356;52.202;20.950;2023-02-28T07:40:53;8.70;48.80
18454;DHT22;9356;52.202;20.950;2023-02-28T07:41:57;8.70;48.40
18454;DHT22;9356;52.202;20.950;2023-02-28T07:43:03;8.70;48.00
18454;DHT22;9356;52.202;20.950;2023-02-28T07:44:16;8.80;61.10
18454;DHT22;9356;52.202;20.950;2023-02-28T07:45:20;8.80;53.10
18454;DHT22;9356;52.202;20.950;2023-02-28T07:46:24;8.80;50.80
18454;DHT22;9356;52.202;20.950;2023-02-28T07:47:33;8.70;50.20
18454;DHT22;9356;52.202;20.950;2023-02-28T07:48:37;8.80;56.00
18454;DHT22;9356;52.202;20.950;2023-02-28T07:49:45;8.90;50.10
18454;DHT22;9356;52.202;20.950;2023-02-28T07:50:55;9.00;48.10
18454;DHT22;9356;52.202;20.950;2023-02-28T07:51:59;9.00;48.20
18454;DHT22;9356;52.202;20.950;2023-02-28T07:53:03;9.00;53.80
18454;DHT22;9356;52.202;20.950;2023-02-28T07:54:06;9.10;49.00
18454;DHT22;9356;52.202;20.950;2023-02-28T07:55:11;9.00;47.80
18454;DHT22;9356;52.202;20.950;2023-02-28T07:56:14;8.80;47.10
18454;DHT22;9356;52.202;20.950;2023-02-28T07:57:18;8.80;49.40
18454;DHT22;9356;52.202;20.950;2023-02-28T07:58:20;8.90;52.50
18454;DHT22;9356;52.202;20.950;2023-02-28T07:59:32;9.00;49.00
18454;DHT22;9356;52.202;20.950;2023-02-28T08:00:35;9.30;58.00
18454;DHT22;9356;52.202;20.950;2023-02-28T08:01:41;9.60;58.10
18454;DHT22;9356;52.202;20.950;2023-02-28T08:02:47;9.80;51.10
18454;DHT22;9356;52.202;20.950;2023-02-28T08:03:49;10.00;53.40
18454;DHT22;9356;52.202;20.950;2023-02-28T08:04:53;10.00;48.30
18454;DHT22;9356;52.202;20.950;2023-02-28T08:05:58;10.00;46.10
18454;DHT22;9356;52.202;20.950;2023-02-28T08:07:02;10.00;45.40
18454;DHT22;9356;52.202;20.950;2023-02-28T08:08:05;10.00;46.80
18454;DHT22;9356;52.202;20.950;2023-02-28T08:09:08;10.10;46.30
18454;DHT22;9356;52.202;20.950;2023-02-28T08:10:11;10.20;46.80
18454;DHT22;9356;52.202;20.950;2023-02-28T08:11:17;10.40;54.50
18454;DHT22;9356;52.202;20.950;2023-02-28T08:12:20;10.50;47.50
18454;DHT22;9356;52.202;20.950;2023-02-28T08:13:24;10.70;47.60
18454;DHT22;9356;52.202;20.950;2023-02-28T08:14:29;10.70;45.40
18454;DHT22;9356;52.202;20.950;2023-02-28T08:15:32;10.80;44.40
18454;DHT22;9356;52.202;20.950;2023-02-28T08:16:36;10.70;44.10
18454;DHT22;9356;52.202;20.950;2023-02-28T08:17:41;10.80;48.40
18454;DHT22;9356;52.202;20.950;2023-02-28T08:18:44;11.00;48.30
18454;DHT22;9356;52.202;20.950;2023-02-28T08:19:49;10.90;45.80
18454;DHT22;9356;52.202;20.950;2023-02-28T08:20:52;11.00;49.00
18454;DHT22;9356;52.202;20.950;2023-02-28T08:22:01;11.00;46.00
18454;DHT22;9356;52.202;20.950;2023-02-28T08:23:04;11.10;45.10
18454;DHT22;9356;52.202;20.950;2023-02-28T08:24:10;11.20;45.80
18454;DHT22;9356;52.202;20.950;2023-02-28T08:25:14;11.10;47.20
18454;DHT22;9356;52.202;20.950;2023-02-28T08:26:20;11.10;44.80
18454;DHT22;9356;52.202;20.950;2023-02-28T08:27:24;11.10;44.40
18454;DHT22;9356;52.202;20.950;2023-02-28T08:28:28;11.00;47.60
18454;DHT22;9356;52.202;20.950;2023-02-28T08:29:32;11.20;56.10
18454;DHT22;9356;52.202;20.950;2023-02-28T08:30:36;11.20;47.40
18454;DHT22;9356;52.202;20.950;2023-02-28T08:31:43;11.20;46.30
18454;DHT22;9356;52.202;20.950;2023-02-28T08:32:49;11.40;52.10
18454;DHT22;9356;52.202;20.950;2023-02-28T08:33:52;11.60;52.60
18454;DHT22;9356;52.202;20.950;2023-02-28T08:34:59;11.60;45.80
18454;DHT22;9356;52.202;20.950;2023-02-28T08:36:06;11.70;47.90
18454;DHT22;9356;52.202;20.950;2023-02-28T08:37:13;11.80;47.50
18454;DHT22;9356;52.202;20.950;2023-02-28T08:38:20;12.00;48.20
18454;DHT22;9356;52.202;20.950;2023-02-28T08:39:25;12.20;47.50
18454;DHT22;9356;52.202;20.950;2023-02-28T08:40:30;12.40;51.90
18454;DHT22;9356;52.202;20.950;2023-02-28T08:41:34;12.60;48.60
18454;DHT22;9356;52.202;20.950;2023-02-28T08:42:39;12.80;46.50
18454;DHT22;9356;52.202;20.950;2023-02-28T08:43:44;12.90;50.70
18454;DHT22;9356;52.202;20.950;2023-02-28T08:44:47;13.10;47.00
18454;DHT22;9356;52.202;20.950;2023-02-28T08:45:52;13.10;44.80
18454;DHT22;9356;52.202;20.950;2023-02-28T08:46:56;13.00;44.20
18454;DHT22;9356;52.202;20.950;2023-02-28T08:48:01;13.10;51.20
18454;DHT22;9356;52.202;20.950;2023-02-28T08:49:06;13.30;79.40
18454;DHT22;9356;52.202;20.950;2023-02-28T08:50:10;13.50;65.60
18454;DHT22;9356;52.202;20.950;2023-02-28T08:51:20;13.80;77.40
18454;DHT22;9356;52.202;20.950;2023-02-28T08:52:33;13.80;51.20
18454;DHT22;9356;52.202;20.950;2023-02-28T08:53:40;13.80;67.70
18454;DHT22;9356;52.202;20.950;2023-02-28T08:54:43;13.90;54.50
18454;DHT22;9356;52.202;20.950;2023-02-28T08:55:47;13.90;49.10
18454;DHT22;9356;52.202;20.950;2023-02-28T08:57:00;13.90;50.20
18454;DHT22;9356;52.202;20.950;2023-02-28T08:58:04;14.10;54.20
18454;DHT22;9356;52.202;20.950;2023-02-28T08:59:10;14.20;50.00
18454;DHT22;9356;52.202;20.950;2023-02-28T09:00:17;14.30;45.70
18454;DHT22;9356;52.202;20.950;2023-02-28T09:01:26;14.50;51.50
18454;DHT22;9356;52.202;20.950;2023-02-28T09:02:32;14.50;46.40
18454;DHT22;9356;52.202;20.950;2023-02-28T09:03:41;14.50;42.10
18454;DHT22;9356;52.202;20.950;2023-02-28T09:04:45;14.40;40.00
18454;DHT22;9356;52.202;20.950;2023-02-28T09:05:54;14.30;44.20
18454;DHT22;9356;52.202;20.950;2023-02-28T09:06:57;14.30;45.80
18454;DHT22;9356;52.202;20.950;2023-02-28T09:08:05;14.20;47.70
18454;DHT22;9356;52.202;20.950;2023-02-28T09:09:09;14.10;46.20
18454;DHT22;9356;52.202;20.950;2023-02-28T09:10:13;14.10;54.50
18454;DHT22;9356;52.202;20.950;2023-02-28T09:11:18;14.20;48.40
18454;DHT22;9356;52.202;20.950;2023-02-28T09:12:22;14.20;42.50
18454;DHT22;9356;52.202;20.950;2023-02-28T09:13:28;14.10;42.50
18454;DHT22;9356;52.202;20.950;2023-02-28T09:14:31;14.10;50.50
18454;DHT22;9356;52.202;20.950;2023-02-28T09:15:37;14.10;47.50
18454;DHT22;9356;52.202;20.950;2023-02-28T09:16:41;14.10;47.70
18454;DHT22;9356;52.202;20.950;2023-02-28T09:17:45;14.20;41.80
18454;DHT22;9356;52.202;20.950;2023-02-28T09:18:50;14.10;40.00
18454;DHT22;9356;52.202;20.950;2023-02-28T09:19:56;14.00;41.10
18454;DHT22;9356;52.202;20.950;2023-02-28T09:21:04;13.90;45.60
18454;DHT22;9356;52.202;20.950;2023-02-28T09:22:16;13.80;44.90
18454;DHT22;9356;52.202;20.950;2023-02-28T09:23:26;13.90;41.30
18454;DHT22;9356;52.202;20.950;2023-02-28T09:24:30;13.80;39.40
18454;DHT22;9356;52.202;20.950;2023-02-28T09:25:35;13.50;40.10
18454;DHT22;9356;52.202;20.950;2023-02-28T09:26:40;13.30;41.40
18454;DHT22;9356;52.202;20.950;2023-02-28T09:27:55;13.10;41.60
18454;DHT22;9356;52.202;20.950;2023-02-28T09:28:59;13.10;43.30
18454;DHT22;9356;52.202;20.950;2023-02-28T09:30:06;13.00;41.80
18454;DHT22;9356;52.202;20.950;2023-02-28T09:31:13;13.00;41.00
18454;DHT22;9356;52.202;20.950;2023-02-28T09:32:16;12.80;40.90
18454;DHT22;9356;52.202;20.950;2023-02-28T09:33:23;12.70;44.00
18454;DHT22;9356;52.202;20.950;2023-02-28T09:34:31;12.70;42.90
18454;DHT22;9356;52.202;20.950;2023-02-28T09:35:36;12.70;42.10
18454;DHT22;9356;52.202;20.950;2023-02-28T09:36:40;12.70;42.80
18454;DHT22;9356;52.202;20.950;2023-02-28T09:37:51;12.80;47.60
18454;DHT22;9356;52.202;20.950;2023-02-28T09:38:57;12.90;44.10
18454;DHT22;9356;52.202;20.950;2023-02-28T09:40:01;13.00;43.80
18454;DHT22;9356;52.202;20.950;2023-02-28T09:41:13;13.00;42.00
18454;DHT22;9356;52.202;20.950;2023-02-28T09:42:25;12.80;40.00
18454;DHT22;9356;52.202;20.950;2023-02-28T09:43:35;12.60;39.90
18454;DHT22;9356;52.202;20.950;2023-02-28T09:44:44;12.30;40.80
18454;DHT22;9356;52.202;20.950;2023-02-28T09:45:54;12.00;40.40
18454;DHT22;9356;52.202;20.950;2023-02-28T09:47:10;11.80;42.20
18454;DHT22;9356;52.202;20.950;2023-02-28T09:48:20;11.70;43.30
18454;DHT22;9356;52.202;20.950;2023-02-28T09:49:34;11.50;43.20
18454;DHT22;9356;52.202;20.950;2023-02-28T09:50:45;11.40;45.40
18454;DHT22;9356;52.202;20.950;2023-02-28T09:51:59;11.50;45.20
18454;DHT22;9356;52.202;20.950;2023-02-28T09:53:13;11.60;45.60
18454;DHT22;9356;52.202;20.950;2023-02-28T09:54:22;11.60;45.60
18454;DHT22;9356;52.202;20.950;2023-02-28T09:55:30;11.60;41.80
18454;DHT22;9356;52.202;20.950;2023-02-28T09:56:50;11.40;42.20
18454;DHT22;9356;52.202;20.950;2023-02-28T09:57:57;11.30;43.40
18454;DHT22;9356;52.202;20.950;2023-02-28T09:59:11;11.20;44.40
18454;DHT22;9356;52.202;20.950;2023-02-28T10:00:22;11.10;46.20
18454;DHT22;9356;52.202;20.950;2023-02-28T10:01:36;11.10;45.20
18454;DHT22;9356;52.202;20.950;2023-02-28T10:03:17;11.10;44.10
18454;DHT22;9356;52.202;20.950;2023-02-28T10:04:41;11.00;42.50
18454;DHT22;9356;52.202;20.950;2023-02-28T10:05:56;10.90;42.40
18454;DHT22;9356;52.202;20.950;2023-02-28T10:07:15;10.60;42.90
18454;DHT22;9356;52.202;20.950;2023-02-28T10:08:26;10.60;42.30
18454;DHT22;9356;52.202;20.950;2023-02-28T10:09:36;10.40;42.20
18454;DHT22;9356;52.202;20.950;2023-02-28T10:10:43;10.30;43.40
18454;DHT22;9356;52.202;20.950;2023-02-28T10:11:51;10.10;44.60
18454;DHT22;9356;52.202;20.950;2023-02-28T10:13:02;10.10;46.30
18454;DHT22;9356;52.202;20.950;2023-02-28T10:14:13;10.20;46.80
18454;DHT22;9356;52.202;20.950;2023-02-28T10:15:22;10.30;46.00
18454;DHT22;9356;52.202;20.950;2023-02-28T10:16:31;10.40;46.90
18454;DHT22;9356;52.202;20.950;2023-02-28T10:17:41;10.20;48.20
18454;DHT22;9356;52.202;20.950;2023-02-28T10:19:03;10.20;48.60
18454;DHT22;9356;52.202;20.950;2023-02-28T10:20:14;10.20;47.00
18454;DHT22;9356;52.202;20.950;2023-02-28T10:21:28;10.20;48.30
18454;DHT22;9356;52.202;20.950;2023-02-28T10:22:38;10.60;51.10
18454;DHT22;9356;52.202;20.950;2023-02-28T10:23:43;10.80;65.60
18454;DHT22;9356;52.202;20.950;2023-02-28T10:24:52;11.20;80.80
18454;DHT22;9356;52.202;20.950;2023-02-28T10:25:59;11.50;56.00
18454;DHT22;9356;52.202;20.950;2023-02-28T10:27:13;11.70;51.80